Time;durP1;ratioP1;P1;durP2;ratioP2;P2;SDS_P1;SDS_P2;PMS_P1;PMS_P2;Temp;Humidity;BMP_temperature;BMP_pressure;BME280_temperature;BME280_humidity;BME280_pressure;Samples;Min_cycle;Max_cycle;Signal;HPM_P1;HPM_P2
2022/03/18 00:01:42;;;;;;;13.38;9.25;;;;;;;7.43;70.52;101925.47;5001199;28;20112;-89
2022/03/18 00:04:08;;;;;;;12.80;9.15;;;;;;;7.40;70.99;101921.16;4999363;28;20044;-89
2022/03/18 00:06:34;;;;;;;10.57;8.52;;;;;;;7.36;71.05;101921.38;5002394;28;20037;-90
2022/03/18 00:08:59;;;;;;;13.80;9.43;;;;;;;7.38;71.23;101928.34;5001442;28;20033;-89
2022/03/18 00:11:25;;;;;;;15.90;10.38;;;;;;;7.34;71.30;101932.09;5000591;28;20052;-90
2022/03/18 00:13:50;;;;;;;13.60;8.85;;;;;;;7.34;71.15;101933.88;4998800;28;20037;-89
2022/03/18 00:16:15;;;;;;;12.82;8.65;;;;;;;7.34;71.34;101934.75;5001318;28;20057;-89
2022/03/18 00:18:41;;;;;;;11.13;8.32;;;;;;;7.32;71.35;101931.28;4999925;28;20068;-90
2022/03/18 00:21:07;;;;;;;11.88;8.65;;;;;;;7.30;71.26;101930.50;4999228;28;20076;-90
2022/03/18 00:23:32;;;;;;;12.10;8.55;;;;;;;7.29;70.92;101926.09;5015898;28;20035;-90
2022/03/18 00:25:58;;;;;;;12.68;7.65;;;;;;;7.27;71.17;101925.31;5000082;28;20064;-89
2022/03/18 00:28:23;;;;;;;12.57;8.27;;;;;;;7.24;70.98;101926.31;4999873;28;20038;-89
2022/03/18 00:30:49;;;;;;;12.98;8.55;;;;;;;7.22;71.35;101927.31;4999999;28;20103;-89
2022/03/18 00:33:15;;;;;;;14.45;9.23;;;;;;;7.19;71.46;101928.31;5000708;28;20087;-89
2022/03/18 00:35:40;;;;;;;11.88;8.32;;;;;;;7.16;71.50;101928.44;5016490;28;20021;-89
2022/03/18 00:38:05;;;;;;;12.85;8.35;;;;;;;7.12;71.57;101932.19;4999353;28;20068;-89
2022/03/18 00:40:31;;;;;;;10.63;8.27;;;;;;;7.15;71.45;101940.03;4999916;28;20034;-89
2022/03/18 00:42:57;;;;;;;14.32;9.07;;;;;;;7.10;71.54;101938.50;4999426;28;20037;-89
2022/03/18 00:45:22;;;;;;;11.05;7.75;;;;;;;7.15;71.43;101939.16;5007952;28;20032;-88
2022/03/18 00:53:16;;;;;;;14.13;8.18;;;;;;;7.16;71.02;101935.56;5017152;28;20149;-89
2022/03/18 00:55:41;;;;;;;13.02;8.60;;;;;;;7.17;71.31;101937.28;5016326;28;20098;-89
2022/03/18 00:58:06;;;;;;;11.20;7.90;;;;;;;7.11;70.86;101940.22;4998725;28;20031;-89
2022/03/18 01:00:32;;;;;;;10.02;7.68;;;;;;;7.07;71.70;101935.94;5000084;28;20130;-89
2022/03/18 01:02:57;;;;;;;13.20;8.05;;;;;;;7.07;71.46;101941.25;5000725;28;20525;-89
2022/03/18 01:05:22;;;;;;;13.55;8.40;;;;;;;7.06;71.58;101942.19;4999333;28;20030;-89
2022/03/18 01:07:48;;;;;;;11.73;8.45;;;;;;;7.01;71.66;101933.53;4999266;28;20407;-90
2022/03/18 01:10:13;;;;;;;15.63;8.43;;;;;;;6.98;71.25;101937.19;5014588;28;20479;-89
2022/03/18 01:12:39;;;;;;;12.15;8.20;;;;;;;6.97;71.77;101942.59;4998841;28;20033;-89
2022/03/18 01:15:04;;;;;;;11.60;8.13;;;;;;;6.91;71.51;101944.56;5000213;28;20034;-89
2022/03/18 01:17:30;;;;;;;11.30;7.90;;;;;;;6.96;71.51;101955.03;4997497;28;20128;-89
2022/03/18 01:19:55;;;;;;;12.40;8.35;;;;;;;6.95;71.31;101934.69;4999952;28;20124;-89
2022/03/18 01:22:20;;;;;;;10.48;7.65;;;;;;;6.95;71.19;101945.31;4999319;28;20455;-89
2022/03/18 01:24:46;;;;;;;10.52;8.38;;;;;;;6.89;71.01;101945.56;5000817;28;20048;-87
2022/03/18 01:27:11;;;;;;;11.23;8.32;;;;;;;6.88;71.40;101951.81;4999063;28;20048;-89
2022/03/18 01:29:36;;;;;;;11.57;8.43;;;;;;;6.85;71.39;101950.16;4999845;28;20030;-89
2022/03/18 01:32:02;;;;;;;12.23;9.00;;;;;;;6.83;71.69;101952.03;4998341;28;20065;-89
2022/03/18 01:34:27;;;;;;;12.02;8.32;;;;;;;6.83;71.31;101954.69;4998536;28;20407;-89
2022/03/18 01:36:53;;;;;;;12.30;7.97;;;;;;;6.83;70.98;101957.34;4999154;28;20072;-89
2022/03/18 01:39:18;;;;;;;12.07;8.35;;;;;;;6.83;71.13;101956.47;4999622;28;20107;-89
2022/03/18 01:41:43;;;;;;;12.10;8.45;;;;;;;6.85;71.50;101965.25;5000331;28;20144;-89
2022/03/18 01:44:10;;;;;;;10.30;8.07;;;;;;;6.87;71.32;101958.94;4999181;28;20176;-89
2022/03/18 01:46:37;;;;;;;11.63;8.43;;;;;;;6.86;70.83;101965.19;5015033;28;20025;-89
2022/03/18 01:49:03;;;;;;;10.70;7.85;;;;;;;6.80;70.84;101961.91;5000299;28;20156;-90
2022/03/18 01:51:29;;;;;;;12.07;8.57;;;;;;;6.78;70.54;101964.66;5015524;28;20495;-89
2022/03/18 01:54:44;;;;;;;11.07;8.20;;;;;;;6.78;70.39;101962.00;4998666;28;20070;-88
2022/03/18 01:56:40;;;;;;;11.43;8.35;;;;;;;6.74;70.31;101967.50;5014832;28;20107;-89
2022/03/18 01:59:05;;;;;;;10.75;8.43;;;;;;;6.73;70.34;101971.09;5000533;28;20053;-89
2022/03/18 02:01:42;;;;;;;11.25;8.48;;;;;;;6.70;70.41;101980.06;4998190;28;20850;-89
2022/03/18 02:04:09;;;;;;;11.48;8.10;;;;;;;6.71;70.77;101979.13;4999346;28;20032;-88
2022/03/18 02:06:34;;;;;;;12.68;8.18;;;;;;;6.67;70.47;101988.16;5011980;28;20546;-89
2022/03/18 02:08:59;;;;;;;10.18;8.32;;;;;;;6.67;70.67;101976.66;5000003;28;20034;-89
2022/03/18 02:11:26;;;;;;;9.82;7.85;;;;;;;6.67;70.67;101984.63;5018862;28;20048;-89
2022/03/18 02:13:52;;;;;;;12.98;8.77;;;;;;;6.61;70.58;101978.59;5018834;28;20029;-89
2022/03/18 02:16:18;;;;;;;10.45;8.55;;;;;;;6.57;70.59;101984.97;5002146;28;20432;-89
2022/03/18 02:18:43;;;;;;;11.05;7.90;;;;;;;6.55;70.84;101988.63;5002048;28;20133;-89
2022/03/18 02:21:09;;;;;;;10.38;8.10;;;;;;;6.55;70.69;101980.66;5002092;28;20036;-89
2022/03/18 02:23:34;;;;;;;11.00;8.48;;;;;;;6.52;70.38;101986.97;5029169;28;20029;-89
2022/03/18 02:25:59;;;;;;;10.93;8.07;;;;;;;6.50;70.79;101991.47;5005380;28;20109;-89
2022/03/18 02:28:25;;;;;;;10.10;8.05;;;;;;;6.50;70.92;102001.25;5001392;28;20029;-90
2022/03/18 02:30:50;;;;;;;10.18;7.75;;;;;;;6.46;71.00;102004.94;5020063;28;20042;-90
2022/03/18 02:33:17;;;;;;;10.63;8.07;;;;;;;6.39;71.18;102009.66;5004183;28;20084;-90
2022/03/18 02:35:42;;;;;;;10.23;7.72;;;;;;;6.42;71.30;102017.50;5003588;28;20121;-89
2022/03/18 02:38:07;;;;;;;12.48;8.23;;;;;;;6.46;71.07;102012.91;5004671;28;20451;-89
2022/03/18 02:43:55;;;;;;;10.35;7.97;;;;;;;6.37;71.26;102016.81;5017561;28;20052;-90
2022/03/18 02:46:21;;;;;;;11.45;8.32;;;;;;;6.38;71.11;102018.53;5002488;28;20037;-89
2022/03/18 02:48:46;;;;;;;9.63;7.82;;;;;;;6.33;70.83;102020.50;5002087;28;20033;-89
2022/03/18 02:51:13;;;;;;;10.40;7.43;;;;;;;6.38;70.22;102023.00;5002210;28;20033;-90
2022/03/18 02:53:38;;;;;;;9.43;7.90;;;;;;;6.33;70.02;102020.50;5001555;28;20126;-89
2022/03/18 02:56:04;;;;;;;9.80;7.82;;;;;;;6.29;70.43;102029.53;5002142;28;20140;-90
2022/03/18 02:58:30;;;;;;;10.10;7.93;;;;;;;6.22;70.54;102034.22;5000137;28;20373;-89
2022/03/18 03:00:55;;;;;;;11.93;8.25;;;;;;;6.18;70.54;102035.25;5001720;28;20041;-90
2022/03/18 03:03:21;;;;;;;11.90;8.02;;;;;;;6.21;70.38;102031.63;5000506;28;20051;-89
2022/03/18 03:08:31;;;;;;;11.38;8.63;;;;;;;6.20;70.22;102041.38;5017838;28;20116;-89
2022/03/18 03:10:57;;;;;;;11.90;8.02;;;;;;;6.24;70.02;102039.47;5000692;28;20985;-89
2022/03/18 03:13:23;;;;;;;10.32;8.35;;;;;;;6.30;70.20;102034.78;5002071;28;20025;-89
2022/03/18 03:15:49;;;;;;;11.18;8.20;;;;;;;6.27;70.47;102039.34;5000989;28;20038;-89
2022/03/18 03:18:14;;;;;;;11.82;8.75;;;;;;;6.24;70.29;102034.16;5002299;28;20096;-89
2022/03/18 03:20:40;;;;;;;12.40;8.75;;;;;;;6.20;70.30;102035.19;5001041;28;20434;-89
2022/03/18 03:23:05;;;;;;;12.93;8.63;;;;;;;6.17;70.57;102043.28;5016238;28;20454;-88
2022/03/18 03:25:30;;;;;;;12.13;8.60;;;;;;;6.15;70.67;102051.31;5002168;28;20025;-89
2022/03/18 03:27:56;;;;;;;11.70;8.73;;;;;;;6.14;70.64;102049.56;5001269;28;20364;-89
2022/03/18 03:30:22;;;;;;;9.02;8.07;;;;;;;6.19;70.24;102054.72;5001399;28;20034;-90
2022/03/18 03:32:49;;;;;;;11.77;8.00;;;;;;;6.20;70.35;102049.34;5003487;28;20087;-89
2022/03/18 03:35:15;;;;;;;12.35;8.05;;;;;;;6.17;70.16;102053.91;5017866;28;20029;-89
2022/03/18 03:37:41;;;;;;;11.50;8.30;;;;;;;6.15;70.18;102048.66;4999980;28;20034;-89
2022/03/18 03:40:06;;;;;;;11.52;8.30;;;;;;;6.15;69.87;102039.78;5008713;28;20092;-90
2022/03/18 03:42:32;;;;;;;10.45;7.80;;;;;;;6.21;69.88;102037.78;5017740;28;20087;-89
2022/03/18 03:44:57;;;;;;;12.30;7.90;;;;;;;6.15;69.57;102048.66;5001005;28;20498;-89
2022/03/18 03:47:22;;;;;;;12.88;8.52;;;;;;;6.06;69.90;102045.44;4999722;28;20514;-89
2022/03/18 03:49:48;;;;;;;10.93;7.72;;;;;;;5.99;70.04;102051.00;4999744;28;20067;-89
2022/03/18 03:52:13;;;;;;;11.50;8.40;;;;;;;5.94;70.42;102063.56;5000475;28;20515;-89
2022/03/18 03:54:40;;;;;;;9.75;7.75;;;;;;;5.90;70.35;102056.66;5025436;28;20103;-88
2022/03/18 03:57:06;;;;;;;8.98;7.25;;;;;;;5.90;70.14;102064.63;5000956;28;20029;-89
2022/03/18 03:59:31;;;;;;;10.25;7.60;;;;;;;5.89;70.39;102062.88;5017507;28;20044;-89
2022/03/18 04:01:57;;;;;;;12.18;7.60;;;;;;;5.88;70.35;102069.09;4999089;28;20202;-89
2022/03/18 04:04:23;;;;;;;10.45;8.10;;;;;;;5.89;70.42;102068.19;5000461;28;20432;-90
2022/03/18 04:06:49;;;;;;;12.15;7.80;;;;;;;5.84;70.22;102077.22;4999405;28;20083;-89
2022/03/18 04:09:15;;;;;;;10.18;7.65;;;;;;;5.87;70.49;102085.06;4999498;28;20125;-89
2022/03/18 04:11:40;;;;;;;14.38;8.10;;;;;;;5.90;70.40;102083.19;5000061;28;20112;-89
2022/03/18 04:14:06;;;;;;;9.93;7.07;;;;;;;5.84;70.43;102085.19;5001720;28;20026;-89
2022/03/18 04:16:31;;;;;;;12.27;7.60;;;;;;;5.84;70.31;102087.84;4999422;28;20112;-89
2022/03/18 04:18:56;;;;;;;10.25;7.57;;;;;;;5.83;70.48;102086.09;5002037;28;20175;-89
2022/03/18 04:21:22;;;;;;;9.82;7.72;;;;;;;5.77;70.66;102084.53;5000488;28;20037;-89
2022/03/18 04:23:47;;;;;;;13.95;8.15;;;;;;;5.78;70.36;102074.78;5016155;28;20033;-89
2022/03/18 04:26:13;;;;;;;9.73;7.63;;;;;;;5.77;70.20;102081.00;5015084;28;20479;-89
2022/03/18 04:28:38;;;;;;;12.98;8.95;;;;;;;5.75;70.20;102089.03;4999118;28;20120;-90
2022/03/18 04:31:03;;;;;;;11.50;8.07;;;;;;;5.70;70.35;102091.00;5016573;28;20049;-89
2022/03/18 04:33:28;;;;;;;10.85;8.30;;;;;;;5.70;70.25;102093.63;4998779;28;20128;-89
2022/03/18 04:35:54;;;;;;;11.15;7.97;;;;;;;5.77;69.66;102091.63;5000669;28;20375;-90
2022/03/18 04:38:19;;;;;;;11.50;8.23;;;;;;;5.82;70.18;102093.19;5000755;28;20053;-89
2022/03/18 04:40:45;;;;;;;13.73;8.93;;;;;;;5.76;69.86;102096.06;5000851;28;21356;-89
2022/03/18 04:43:10;;;;;;;11.93;7.82;;;;;;;5.72;70.19;102099.75;4999673;28;20151;-89
2022/03/18 04:45:35;;;;;;;11.05;7.85;;;;;;;5.68;69.97;102103.44;4998575;28;20464;-89
2022/03/18 04:48:01;;;;;;;10.40;8.00;;;;;;;5.58;69.89;102105.53;5015778;28;20075;-89
2022/03/18 04:50:27;;;;;;;10.52;7.57;;;;;;;5.50;70.40;102107.56;5016429;28;20037;-89
2022/03/18 04:52:52;;;;;;;12.57;8.10;;;;;;;5.51;70.78;102109.31;5000475;28;20034;-89
2022/03/18 04:55:18;;;;;;;11.82;8.02;;;;;;;5.56;70.94;102122.41;5016242;28;20064;-89
2022/03/18 04:57:43;;;;;;;12.73;8.40;;;;;;;5.54;70.61;102111.84;5023713;28;20113;-89
2022/03/18 05:00:24;;;;;;;10.20;7.65;;;;;;;5.53;70.25;102110.13;5000321;28;20029;-89
2022/03/18 05:02:55;;;;;;;11.52;7.82;;;;;;;5.48;69.95;102124.47;5015238;28;20033;-89
2022/03/18 05:05:21;;;;;;;11.07;7.50;;;;;;;5.29;70.46;102130.41;4999751;28;20030;-89
2022/03/18 05:07:50;;;;;;;11.68;7.80;;;;;;;5.32;70.72;102142.69;5017056;28;20047;-89
2022/03/18 05:10:16;;;;;;;10.85;7.80;;;;;;;5.38;70.98;102135.41;5000222;28;20068;-90
2022/03/18 05:12:42;;;;;;;10.27;7.75;;;;;;;5.44;70.37;102131.66;4998902;28;20060;-89
2022/03/18 05:15:08;;;;;;;10.43;8.07;;;;;;;5.42;70.01;102146.75;4997504;28;20505;-89
2022/03/18 05:17:34;;;;;;;9.95;7.85;;;;;;;5.42;69.90;102152.06;4998781;28;20442;-89
2022/03/18 05:20:00;;;;;;;9.90;7.88;;;;;;;5.42;69.89;102152.06;5015779;28;20034;-90
2022/03/18 05:22:25;;;;;;;12.95;8.48;;;;;;;5.38;69.73;102156.63;5013772;28;20033;-89
2022/03/18 05:24:51;;;;;;;13.40;8.52;;;;;;;5.38;69.62;102153.09;4999649;28;20498;-89
2022/03/18 05:27:16;;;;;;;10.52;7.97;;;;;;;5.45;70.20;102161.72;4998451;28;20037;-89
2022/03/18 05:29:42;;;;;;;11.45;8.15;;;;;;;5.49;69.64;102156.25;4998716;28;20029;-89
2022/03/18 05:32:07;;;;;;;11.65;8.82;;;;;;;5.37;69.68;102149.56;4998477;28;20033;-89
2022/03/18 05:34:33;;;;;;;13.00;8.43;;;;;;;5.48;69.66;102154.53;5000040;28;20037;-89
2022/03/18 05:36:58;;;;;;;12.90;8.88;;;;;;;5.44;69.67;102152.03;5014614;28;20084;-89
2022/03/18 05:39:24;;;;;;;12.32;8.70;;;;;;;5.46;69.57;102155.50;4997412;28;20035;-89
2022/03/18 05:41:49;;;;;;;13.25;9.05;;;;;;;5.46;69.58;102152.84;4999809;28;20041;-89
2022/03/18 05:44:14;;;;;;;13.63;9.05;;;;;;;5.47;69.78;102163.41;5001069;28;20435;-89
2022/03/18 05:46:40;;;;;;;14.50;9.48;;;;;;;5.43;69.39;102169.72;5003004;28;20390;-89
2022/03/18 05:49:05;;;;;;;11.98;8.90;;;;;;;5.40;69.77;102188.41;5001826;28;20044;-89
2022/03/18 05:51:31;;;;;;;13.68;10.55;;;;;;;5.38;69.43;102184.94;5003445;28;20037;-89
2022/03/18 05:53:56;;;;;;;14.15;9.50;;;;;;;5.33;70.11;102187.72;5018504;28;20057;-90
2022/03/18 05:59:18;;;;;;;14.05;10.35;;;;;;;5.27;70.45;102200.31;5009290;28;20048;-90
2022/03/18 06:01:43;;;;;;;14.27;9.23;;;;;;;5.30;70.72;102205.53;5001699;28;20034;-89
2022/03/18 06:04:10;;;;;;;16.85;9.35;;;;;;;5.28;70.76;102204.72;5003437;28;20084;-89
2022/03/18 06:06:40;;;;;;;12.18;8.50;;;;;;;5.27;70.97;102198.53;5019987;28;20582;-90
2022/03/18 06:11:50;;;;;;;12.55;8.85;;;;;;;5.31;70.67;102191.34;5018093;28;20037;-89
2022/03/18 06:14:16;;;;;;;11.50;8.38;;;;;;;5.30;71.15;102205.53;5002380;28;20033;-89
2022/03/18 06:16:42;;;;;;;14.18;9.30;;;;;;;5.12;71.54;102212.25;5000894;28;20980;-90
2022/03/18 06:19:08;;;;;;;15.18;8.90;;;;;;;5.03;71.49;102215.19;5001998;28;20045;-89
2022/03/18 06:21:34;;;;;;;11.30;8.63;;;;;;;4.84;71.41;102217.53;4999976;28;20029;-89
2022/03/18 06:23:59;;;;;;;17.70;10.25;;;;;;;4.93;72.20;102224.34;5001561;28;20029;-89
2022/03/18 06:26:24;;;;;;;15.63;10.90;;;;;;;4.93;72.33;102219.91;4999771;28;20036;-89
2022/03/18 06:28:50;;;;;;;17.23;11.27;;;;;;;4.88;72.42;102227.13;5000614;28;20026;-89
2022/03/18 06:31:15;;;;;;;18.50;11.43;;;;;;;4.84;72.26;102233.44;5001732;28;20025;-89
2022/03/18 06:33:44;;;;;;;19.33;10.85;;;;;;;4.83;72.45;102237.00;4998178;28;20040;-89
2022/03/18 06:36:13;;;;;;;16.73;11.25;;;;;;;4.99;72.54;102232.09;5002246;28;20042;-90
2022/03/18 06:38:39;;;;;;;17.73;10.88;;;;;;;5.13;72.10;102231.69;5017234;28;20533;-89
2022/03/18 06:41:04;;;;;;;15.98;10.60;;;;;;;5.42;72.16;102228.16;5019178;28;20041;-88
2022/03/18 06:43:30;;;;;;;16.42;10.32;;;;;;;5.33;71.44;102224.88;5017258;28;20818;-90
2022/03/18 06:45:55;;;;;;;17.25;11.02;;;;;;;5.19;71.71;102234.16;5000831;28;20029;-89
2022/03/18 06:48:21;;;;;;;17.50;11.10;;;;;;;5.13;72.21;102240.50;4999239;28;20499;-89
2022/03/18 06:50:46;;;;;;;16.90;10.73;;;;;;;5.03;72.41;102239.06;5016530;28;20552;-88
2022/03/18 06:53:11;;;;;;;14.95;10.05;;;;;;;5.14;73.24;102234.28;5000496;28;20458;-90
2022/03/18 06:55:37;;;;;;;14.98;10.13;;;;;;;5.23;72.46;102230.50;5016111;28;20907;-89
2022/03/18 06:58:02;;;;;;;14.90;9.85;;;;;;;5.23;72.82;102244.66;5000648;28;20113;-89
2022/03/18 07:00:27;;;;;;;13.88;9.90;;;;;;;5.09;73.25;102244.16;5001168;28;20573;-89
2022/03/18 07:02:53;;;;;;;14.32;9.70;;;;;;;5.10;73.80;102260.94;5002927;28;20075;-89
2022/03/18 07:05:19;;;;;;;18.50;10.30;;;;;;;5.08;74.17;102266.31;5016003;28;20850;-89
2022/03/18 07:07:44;;;;;;;14.32;9.77;;;;;;;5.11;74.72;102252.94;4999759;28;20036;-89
2022/03/18 07:10:12;;;;;;;15.65;10.23;;;;;;;5.27;75.05;102253.38;5018075;28;20518;-89
2022/03/18 07:12:37;;;;;;;13.00;9.20;;;;;;;5.30;74.71;102264.75;5017838;28;20029;-88
2022/03/18 07:15:03;;;;;;;15.63;10.27;;;;;;;5.36;74.70;102256.59;5002805;28;20987;-89
2022/03/18 07:20:13;;;;;;;14.27;10.05;;;;;;;5.44;74.58;102255.50;5017308;28;20048;-88
2022/03/18 07:22:39;;;;;;;15.80;10.55;;;;;;;5.43;74.66;102264.38;5001010;28;20084;-88
2022/03/18 07:25:05;;;;;;;13.20;9.65;;;;;;;5.44;75.18;102263.44;5019871;28;20109;-89
2022/03/18 07:27:30;;;;;;;15.93;10.50;;;;;;;5.52;75.12;102264.94;5017248;28;20123;-89
2022/03/18 07:29:56;;;;;;;14.75;9.70;;;;;;;5.50;75.97;102265.91;5001717;28;20432;-89
2022/03/18 07:32:22;;;;;;;13.90;9.32;;;;;;;5.55;75.46;102254.22;5000695;28;20029;-87
2022/03/18 07:34:47;;;;;;;17.33;8.88;;;;;;;5.62;76.10;102247.81;5003709;28;20036;-90
2022/03/18 07:37:12;;;;;;;12.93;7.68;;;;;;;5.71;76.31;102230.75;5000922;28;20030;-89
2022/03/18 07:39:50;;;;;;;12.32;6.97;;;;;;;5.81;76.54;102223.34;5017624;28;20037;-89
2022/03/18 07:42:16;;;;;;;12.68;6.88;;;;;;;5.84;76.26;102224.09;5015949;28;20069;-90
2022/03/18 07:44:41;;;;;;;15.20;7.10;;;;;;;5.86;76.37;102230.22;5015932;28;20107;-89
2022/03/18 07:47:07;;;;;;;12.25;6.40;;;;;;;5.86;76.57;102245.28;5008026;28;20029;-90
2022/03/18 07:49:32;;;;;;;11.40;6.03;;;;;;;5.90;76.57;102242.50;4998306;28;20037;-89
2022/03/18 07:51:58;;;;;;;13.80;6.28;;;;;;;5.94;76.56;102240.63;5016059;28;20128;-89
2022/03/18 07:54:23;;;;;;;10.43;6.25;;;;;;;5.94;76.70;102238.84;5002870;28;20045;-89
2022/03/18 07:56:50;;;;;;;12.88;5.85;;;;;;;6.00;76.69;102237.75;5001886;28;20021;-89
2022/03/18 07:59:15;;;;;;;12.82;5.78;;;;;;;6.15;77.00;102241.66;5001434;28;20034;-89
2022/03/18 08:01:41;;;;;;;10.95;5.40;;;;;;;6.18;76.97;102238.94;5015099;28;20419;-89
2022/03/18 08:04:08;;;;;;;9.27;4.85;;;;;;;6.25;76.12;102241.31;5001882;28;20060;-89
2022/03/18 08:06:34;;;;;;;9.15;5.10;;;;;;;6.29;76.26;102244.72;4999600;28;20022;-89
2022/03/18 08:08:59;;;;;;;9.73;5.05;;;;;;;6.27;76.22;102239.47;5000126;28;20022;-89
2022/03/18 08:11:24;;;;;;;12.27;5.53;;;;;;;6.23;76.71;102244.94;4999416;28;20044;-89
2022/03/18 08:13:50;;;;;;;9.02;5.25;;;;;;;6.26;76.74;102237.75;4998881;28;20139;-89
2022/03/18 08:16:16;;;;;;;11.10;5.30;;;;;;;6.34;76.71;102242.78;5008552;28;20057;-89
2022/03/18 08:18:41;;;;;;;9.55;5.00;;;;;;;6.33;76.60;102249.00;5000924;28;20033;-89
2022/03/18 08:21:07;;;;;;;13.65;5.32;;;;;;;6.31;76.96;102246.41;4999504;28;20065;-90
2022/03/18 08:23:33;;;;;;;10.15;4.53;;;;;;;6.35;76.62;102249.81;5001590;28;20601;-90
2022/03/18 08:25:59;;;;;;;9.23;5.25;;;;;;;6.38;76.61;102248.84;5016490;28;20570;-89
2022/03/18 08:28:24;;;;;;;11.93;5.20;;;;;;;6.50;76.92;102259.91;4999973;28;20048;-90
2022/03/18 08:30:49;;;;;;;8.73;4.38;;;;;;;6.51;76.44;102260.78;5000801;28;20455;-90
2022/03/18 08:33:15;;;;;;;7.80;4.70;;;;;;;6.49;76.52;102265.28;4999637;28;20025;-89
2022/03/18 08:35:41;;;;;;;10.30;4.90;;;;;;;6.43;76.28;102266.38;4998477;28;20072;-89
2022/03/18 08:38:08;;;;;;;11.20;4.40;;;;;;;6.51;76.47;102269.63;5015466;28;20041;-89
2022/03/18 08:40:35;;;;;;;9.20;4.60;;;;;;;6.53;75.86;102274.88;5000521;28;20036;-90
2022/03/18 08:43:04;;;;;;;11.10;4.35;;;;;;;6.53;75.66;102277.53;5007552;28;20426;-89
2022/03/18 08:45:30;;;;;;;10.60;5.03;;;;;;;6.55;75.50;102288.97;4999849;28;20053;-89
2022/03/18 08:47:55;;;;;;;11.68;4.35;;;;;;;6.61;75.44;102286.09;5000624;28;20057;-90
2022/03/18 08:50:22;;;;;;;10.45;4.47;;;;;;;6.67;75.62;102282.38;4999808;28;20036;-89
2022/03/18 08:52:49;;;;;;;8.30;4.45;;;;;;;6.68;75.66;102292.09;4999662;28;20057;-88
2022/03/18 08:55:15;;;;;;;11.60;4.38;;;;;;;6.70;75.11;102303.53;5016804;28;20077;-89
2022/03/18 08:57:41;;;;;;;8.15;4.68;;;;;;;6.65;75.39;102306.38;5016330;28;20064;-88
2022/03/18 09:00:09;;;;;;;8.95;4.78;;;;;;;6.63;74.99;102310.88;5015134;28;20037;-89
2022/03/18 09:02:35;;;;;;;12.02;4.90;;;;;;;6.59;74.57;102311.88;5015371;28;20080;-89
2022/03/18 09:05:01;;;;;;;8.82;4.20;;;;;;;6.58;74.43;102312.78;5017866;28;20036;-89
2022/03/18 09:07:26;;;;;;;9.90;4.57;;;;;;;6.81;75.38;102318.19;4998922;28;20029;-90
2022/03/18 09:09:52;;;;;;;12.98;4.97;;;;;;;6.83;74.36;102320.78;5000732;28;20030;-89
2022/03/18 09:12:18;;;;;;;9.80;4.53;;;;;;;6.78;74.10;102325.41;4998765;28;20152;-89
2022/03/18 09:14:44;;;;;;;9.48;4.25;;;;;;;6.81;73.58;102327.94;4998956;28;20112;-89
2022/03/18 09:17:09;;;;;;;7.45;3.53;;;;;;;7.05;72.97;102336.81;4996612;28;20486;-89
2022/03/18 09:19:37;;;;;;;7.30;3.20;;;;;;;7.08;71.19;102334.91;5015145;28;20042;-89
2022/03/18 09:22:07;;;;;;;5.73;3.17;;;;;;;7.03;70.82;102331.56;5016227;28;20030;-90
2022/03/18 09:24:36;;;;;;;9.27;3.20;;;;;;;6.94;69.91;102335.41;5000876;28;20177;-89
2022/03/18 09:27:02;;;;;;;5.85;2.72;;;;;;;6.95;70.25;102345.13;5006965;28;20096;-89
2022/03/18 09:29:28;;;;;;;6.88;2.80;;;;;;;6.93;68.88;102344.31;5001049;28;20056;-90
2022/03/18 09:31:54;;;;;;;4.18;2.55;;;;;;;7.01;67.95;102343.16;4997452;28;20551;-90
2022/03/18 09:34:24;;;;;;;6.85;3.78;;;;;;;7.02;66.80;102353.75;4997919;28;20112;-89
2022/03/18 09:36:57;;;;;;;5.05;2.90;;;;;;;6.98;66.32;102356.59;5000614;28;20037;-90
2022/03/18 09:39:24;;;;;;;6.57;2.85;;;;;;;6.94;66.39;102354.03;5000411;28;20056;-89
2022/03/18 09:41:50;;;;;;;7.93;3.08;;;;;;;7.03;67.03;102358.16;5015773;28;20490;-89
2022/03/18 09:44:16;;;;;;;6.20;2.63;;;;;;;7.19;67.11;102359.34;5016835;28;20480;-90
2022/03/18 09:46:42;;;;;;;5.68;2.72;;;;;;;7.20;67.00;102357.56;4996568;28;20025;-90
2022/03/18 09:49:12;;;;;;;7.18;2.72;;;;;;;7.21;65.51;102361.97;5015237;28;20067;-89
2022/03/18 09:51:47;;;;;;;7.47;3.00;;;;;;;7.19;66.58;102358.47;4998488;28;20040;-90
2022/03/18 09:54:13;;;;;;;6.65;3.67;;;;;;;7.12;66.60;102365.81;5007612;28;20128;-89
2022/03/18 09:56:40;;;;;;;9.32;4.20;;;;;;;7.13;67.56;102366.69;5014566;28;20073;-90
2022/03/18 09:59:05;;;;;;;4.97;3.65;;;;;;;7.18;68.23;102370.06;5014799;28;20115;-90
2022/03/18 10:01:30;;;;;;;9.15;3.90;;;;;;;7.28;68.31;102375.91;4998088;28;20057;-89
2022/03/18 10:04:05;;;;;;;7.53;3.67;;;;;;;7.35;68.98;102374.75;4999523;28;20032;-89
2022/03/18 10:06:32;;;;;;;6.22;3.60;;;;;;;7.39;68.51;102373.69;5006471;28;20022;-89
2022/03/18 10:08:59;;;;;;;10.10;4.07;;;;;;;7.29;67.54;102378.50;4998330;28;21069;-89
2022/03/18 10:11:27;;;;;;;9.20;4.28;;;;;;;7.24;68.14;102383.13;4999667;28;20066;-90
2022/03/18 10:14:16;;;;;;;9.32;4.50;;;;;;;7.46;70.29;102380.53;5016230;28;20116;-90
2022/03/18 10:16:43;;;;;;;8.23;4.18;;;;;;;7.46;69.36;102375.19;4996572;28;20029;-90
2022/03/18 10:19:11;;;;;;;8.60;4.53;;;;;;;7.43;69.71;102384.16;5015433;28;20049;-89
2022/03/18 10:21:57;;;;;;;11.63;4.60;;;;;;;7.37;70.06;102383.53;4998179;28;20041;-90
2022/03/18 10:24:34;;;;;;;11.27;4.57;;;;;;;7.51;70.28;102382.09;5031750;28;20044;-90
2022/03/18 10:27:12;;;;;;;10.20;4.60;;;;;;;7.60;69.77;102382.69;4998453;28;20022;-89
2022/03/18 10:29:49;;;;;;;11.13;4.90;;;;;;;7.53;69.52;102372.25;5014202;28;20044;-89
2022/03/18 10:32:16;;;;;;;9.43;4.47;;;;;;;7.47;70.10;102372.47;5027179;28;20041;-89
2022/03/18 10:37:59;;;;;;;9.55;4.70;;;;;;;7.39;69.25;102358.59;5031732;28;20064;-89
2022/03/18 10:40:35;;;;;;;8.98;4.03;;;;;;;7.48;69.48;102368.88;5002587;28;20045;-89
2022/03/18 10:43:03;;;;;;;7.25;4.32;;;;;;;7.57;69.83;102370.34;5002285;28;20060;-89
2022/03/18 10:45:29;;;;;;;8.00;4.20;;;;;;;7.60;68.79;102369.38;5002168;28;20120;-89
2022/03/18 10:48:09;;;;;;;8.25;3.90;;;;;;;7.59;68.76;102373.84;5003445;28;20128;-89
2022/03/18 10:50:34;;;;;;;7.25;3.38;;;;;;;7.57;67.91;102367.69;5001280;28;20029;-89
2022/03/18 10:53:02;;;;;;;7.47;3.38;;;;;;;7.61;67.86;102369.31;5003809;28;20036;-89
2022/03/18 10:55:36;;;;;;;8.90;3.17;;;;;;;7.57;66.76;102365.91;5000887;28;20037;-89
2022/03/18 10:58:08;;;;;;;7.75;3.70;;;;;;;7.59;66.82;102368.50;5001151;28;20058;-89
2022/03/18 11:00:44;;;;;;;6.45;3.47;;;;;;;7.65;67.20;102370.06;5018475;28;20044;-89
2022/03/18 11:03:11;;;;;;;6.00;3.30;;;;;;;7.71;66.43;102372.47;5002187;28;20029;-89
2022/03/18 11:05:38;;;;;;;8.20;3.47;;;;;;;7.82;66.88;102372.94;5002860;28;20032;-89
2022/03/18 11:08:07;;;;;;;7.10;3.20;;;;;;;7.83;64.99;102377.31;5009616;28;20030;-89
2022/03/18 11:13:25;;;;;;;4.47;2.67;;;;;;;7.86;64.92;102369.22;5019447;28;20048;-90
2022/03/18 11:15:51;;;;;;;8.77;3.60;;;;;;;7.86;64.08;102367.41;5003397;28;20033;-89
2022/03/18 11:18:16;;;;;;;5.75;3.40;;;;;;;8.01;65.31;102375.72;5000611;28;20157;-89
2022/03/18 11:20:43;;;;;;;8.38;3.50;;;;;;;8.04;64.26;102378.25;5001501;28;20043;-89
2022/03/18 11:23:22;;;;;;;8.52;3.10;;;;;;;8.11;64.74;102375.31;5000957;28;20036;-89
2022/03/18 11:25:50;;;;;;;8.10;3.47;;;;;;;8.15;65.30;102384.91;5001012;28;20530;-89
2022/03/18 11:28:17;;;;;;;5.63;3.15;;;;;;;8.13;65.47;102377.91;5019352;28;20482;-89
2022/03/18 11:30:44;;;;;;;5.93;2.90;;;;;;;8.09;66.22;102382.50;4999884;28;20034;-89
2022/03/18 11:33:09;;;;;;;8.55;4.20;;;;;;;8.16;65.86;102376.00;5000911;28;20029;-89
2022/03/18 11:35:49;;;;;;;6.55;3.15;;;;;;;8.20;64.29;102376.72;5016997;28;20033;-89
2022/03/18 11:38:15;;;;;;;6.43;3.00;;;;;;;8.19;63.43;102373.19;5015773;28;20148;-89
2022/03/18 11:41:02;;;;;;;5.03;2.67;;;;;;;8.32;63.29;102376.22;4999594;28;20156;-89
2022/03/18 11:43:37;;;;;;;7.05;3.00;;;;;;;8.39;62.69;102377.72;4998976;28;20084;-89
2022/03/18 11:46:15;;;;;;;4.20;2.90;;;;;;;8.46;61.71;102367.66;5016451;28;20033;-89
2022/03/18 11:48:46;;;;;;;5.22;2.60;;;;;;;8.42;60.48;102360.72;5016394;28;20105;-89
2022/03/18 11:51:46;;;;;;;5.28;2.78;;;;;;;8.45;60.01;102360.59;5017222;28;20048;-89